createdAt,value
2018-03-24T00:02:08.156Z,92894.31
2018-03-24T00:04:35.759Z,92893.05
2018-03-24T00:07:03.368Z,92890.30
2018-03-24T00:09:31.010Z,92884.39
2018-03-24T00:11:58.684Z,92886.03
2018-03-24T00:14:26.442Z,92888.62
2018-03-24T00:16:54.095Z,92885.08
2018-03-24T00:19:22.137Z,92883.29
2018-03-24T00:21:49.850Z,92881.80
2018-03-24T00:24:17.506Z,92875.80
2018-03-24T00:26:45.083Z,92881.62
2018-03-24T00:29:12.692Z,92880.63
2018-03-24T00:31:40.393Z,92876.81
2018-03-24T00:34:07.990Z,92874.65
2018-03-24T00:36:35.648Z,92871.77
2018-03-24T00:39:03.355Z,92876.00
2018-03-24T00:41:32.572Z,92875.53
2018-03-24T00:44:00.642Z,92875.81
2018-03-24T00:46:29.049Z,92870.88
2018-03-24T00:48:56.674Z,92870.78
2018-03-24T00:51:24.361Z,92867.95
2018-03-24T00:53:52.119Z,92867.84
2018-03-24T00:56:20.396Z,92868.94
2018-03-24T00:58:48.062Z,92871.29
2018-03-24T01:01:15.736Z,92860.27
2018-03-24T01:03:43.380Z,92867.26
2018-03-24T01:06:11.056Z,92865.76
2018-03-24T01:08:38.682Z,92869.80
2018-03-24T01:11:06.614Z,92864.50
2018-03-24T01:13:34.439Z,92868.84
2018-03-24T01:16:02.020Z,92865.68
2018-03-24T01:18:29.607Z,92856.70
2018-03-24T01:20:57.447Z,92869.22
2018-03-24T01:23:25.028Z,92869.03
2018-03-24T01:25:53.211Z,92864.19
2018-03-24T01:28:20.917Z,92862.62
2018-03-24T01:30:49.247Z,92857.00
2018-03-24T01:33:16.881Z,92862.70
2018-03-24T01:35:44.648Z,92856.52
2018-03-24T01:38:12.305Z,92860.74
2018-03-24T01:40:40.040Z,92853.95
2018-03-24T01:43:07.959Z,92850.42
2018-03-24T01:45:36.190Z,92854.66
2018-03-24T01:48:03.897Z,92852.80
2018-03-24T01:50:31.533Z,92845.98
2018-03-24T01:52:59.153Z,92848.05
2018-03-24T01:55:27.494Z,92841.56
2018-03-24T01:57:55.068Z,92840.27
2018-03-24T02:00:22.713Z,92842.44
2018-03-24T02:02:50.342Z,92838.79
2018-03-24T02:05:17.946Z,92844.78
2018-03-24T02:07:45.570Z,92836.35
2018-03-24T02:10:13.214Z,92833.77
2018-03-24T02:12:40.808Z,92835.25
2018-03-24T02:15:08.465Z,92830.33
2018-03-24T02:17:36.045Z,92831.70
2018-03-24T02:20:03.911Z,92826.59
2018-03-24T02:22:33.601Z,92820.61
2018-03-24T02:25:01.351Z,92828.84
2018-03-24T02:27:28.937Z,92836.81
2018-03-24T02:29:56.585Z,92830.33
2018-03-24T02:32:24.184Z,92823.84
2018-03-24T02:34:52.287Z,92824.15
2018-03-24T02:37:19.983Z,92822.55
2018-03-24T02:39:47.656Z,92818.52
2018-03-24T02:42:15.323Z,92818.80
2018-03-24T02:44:42.983Z,92818.61
2018-03-24T02:47:10.625Z,92819.22
2018-03-24T02:49:38.516Z,92823.05
2018-03-24T02:52:06.270Z,92824.81
2018-03-24T02:54:33.874Z,92828.55
2018-03-24T02:57:01.464Z,92823.16
2018-03-24T02:59:29.122Z,92820.99
2018-03-24T03:01:56.743Z,92821.75
2018-03-24T03:04:24.660Z,92819.09
2018-03-24T03:06:52.265Z,92814.09
2018-03-24T03:09:19.925Z,92811.14
2018-03-24T03:11:47.520Z,92815.66
2018-03-24T03:14:15.152Z,92813.97
2018-03-24T03:16:42.738Z,92810.34
2018-03-24T03:19:10.418Z,92814.58
2018-03-24T03:21:49.904Z,92814.67
2018-03-24T03:24:19.555Z,92806.91
2018-03-24T03:26:47.319Z,92809.55
2018-03-24T03:29:14.927Z,92810.53
2018-03-24T03:31:42.703Z,92807.31
2018-03-24T03:34:10.370Z,92803.66
2018-03-24T03:36:37.973Z,92806.21
2018-03-24T03:39:05.695Z,92803.75
2018-03-24T03:41:33.288Z,92801.70
2018-03-24T03:44:00.884Z,92800.09
2018-03-24T03:46:29.380Z,92794.30
2018-03-24T03:48:56.954Z,92792.64
2018-03-24T03:51:24.579Z,92793.42
2018-03-24T03:53:52.233Z,92788.41
2018-03-24T03:56:19.809Z,92786.33
2018-03-24T03:58:47.458Z,92784.56
2018-03-24T04:01:15.065Z,92788.50
2018-03-24T04:03:42.724Z,92789.09
2018-03-24T04:06:10.356Z,92792.12
2018-03-24T04:08:37.994Z,92791.12
2018-03-24T04:11:05.650Z,92788.97
2018-03-24T04:13:33.231Z,92784.05
2018-03-24T04:16:01.022Z,92788.47
2018-03-24T04:18:28.637Z,92787.57
2018-03-24T04:20:56.286Z,92792.59
2018-03-24T04:23:23.927Z,92794.37
2018-03-24T04:25:51.580Z,92790.81
2018-03-24T04:28:19.284Z,92786.77
2018-03-24T04:30:46.882Z,92785.40
2018-03-24T04:33:14.537Z,92782.42
2018-03-24T04:35:42.131Z,92783.18
2018-03-24T04:38:09.788Z,92780.81
2018-03-24T04:40:37.388Z,92784.06
2018-03-24T04:43:05.370Z,92781.49
2018-03-24T04:45:33.062Z,92773.72
2018-03-24T04:48:00.646Z,92772.27
2018-03-24T04:50:28.706Z,92774.13
2018-03-24T04:52:56.363Z,92774.79
2018-03-24T04:55:24.016Z,92777.25
2018-03-24T04:57:51.664Z,92779.42
2018-03-24T05:00:19.295Z,92780.81
2018-03-24T05:02:47.740Z,92776.86
2018-03-24T05:05:15.330Z,92778.32
2018-03-24T05:07:43.028Z,92790.11
2018-03-24T05:10:10.833Z,92784.52
2018-03-24T05:12:38.468Z,92784.44
2018-03-24T05:15:06.171Z,92784.06
2018-03-24T05:17:33.822Z,92789.21
2018-03-24T05:20:01.632Z,92787.81
2018-03-24T05:22:29.220Z,92787.19
2018-03-24T05:24:56.861Z,92787.78
2018-03-24T05:27:24.618Z,92793.71
2018-03-24T05:29:52.215Z,92797.56
2018-03-24T05:32:19.859Z,92789.86
2018-03-24T05:34:47.506Z,92794.36
2018-03-24T05:37:15.333Z,92787.40
2018-03-24T05:39:42.985Z,92789.95
2018-03-24T05:42:10.585Z,92790.53
2018-03-24T05:44:38.391Z,92787.30
2018-03-24T05:47:06.072Z,92787.48
2018-03-24T05:49:34.289Z,92793.12
2018-03-24T05:52:02.217Z,92785.83
2018-03-24T05:54:30.058Z,92792.98
2018-03-24T05:56:57.848Z,92794.83
2018-03-24T05:59:25.544Z,92785.93
2018-03-24T06:01:53.491Z,92789.97
2018-03-24T06:04:21.154Z,92790.06
2018-03-24T06:06:48.799Z,92794.72
2018-03-24T06:09:16.403Z,92792.55
2018-03-24T06:11:44.089Z,92792.25
2018-03-24T06:14:11.791Z,92791.87
2018-03-24T06:16:39.454Z,92793.73
2018-03-24T06:19:07.079Z,92791.37
2018-03-24T06:21:34.734Z,92795.02
2018-03-24T06:24:02.398Z,92795.70
2018-03-24T06:26:30.230Z,92796.28
2018-03-24T06:28:58.140Z,92799.98
2018-03-24T06:31:28.262Z,92801.58
2018-03-24T06:33:56.241Z,92798.55
2018-03-24T06:36:27.858Z,92801.61
2018-03-24T06:38:55.527Z,92798.26
2018-03-24T06:41:23.173Z,92794.20
2018-03-24T06:43:50.822Z,92799.41
2018-03-24T06:46:18.553Z,92793.08
2018-03-24T06:48:46.216Z,92788.89
2018-03-24T06:51:13.927Z,92788.58
2018-03-24T06:53:41.618Z,92784.63
2018-03-24T06:56:09.266Z,92785.66
2018-03-24T06:58:37.706Z,92782.30
2018-03-24T07:01:05.343Z,92779.16
2018-03-24T07:03:33.029Z,92782.17
2018-03-24T07:06:01.273Z,92789.19
2018-03-24T07:08:29.871Z,92786.83
2018-03-24T07:10:57.757Z,92787.00
2018-03-24T07:13:25.625Z,92787.59
2018-03-24T07:15:53.472Z,92781.42
2018-03-24T07:18:21.061Z,92784.16
2018-03-24T07:20:48.797Z,92779.89
2018-03-24T07:23:16.549Z,92776.80
2018-03-24T07:25:45.559Z,92781.74
2018-03-24T07:28:13.445Z,92783.61
2018-03-24T07:30:41.406Z,92777.25
2018-03-24T07:33:09.109Z,92773.65
2018-03-24T07:35:37.314Z,92776.95
2018-03-24T07:38:05.119Z,92774.38
2018-03-24T07:40:33.432Z,92772.20
2018-03-24T07:43:01.049Z,92768.13
2018-03-24T07:45:28.805Z,92770.34
2018-03-24T07:47:56.522Z,92770.14
2018-03-24T07:50:24.355Z,92770.63
2018-03-24T07:52:52.364Z,92765.09
2018-03-24T07:55:20.192Z,92769.84
2018-03-24T07:57:48.472Z,92771.98
2018-03-24T08:00:16.664Z,92768.31
2018-03-24T08:02:44.444Z,92767.30
2018-03-24T08:05:12.377Z,92761.86
2018-03-24T08:07:40.223Z,92761.25
2018-03-24T08:10:08.096Z,92757.35
2018-03-24T08:12:36.711Z,92752.16
2018-03-24T08:15:04.324Z,92746.39
2018-03-24T08:17:32.606Z,92739.44
2018-03-24T08:20:01.413Z,92735.60
2018-03-24T08:22:29.694Z,92736.99
2018-03-24T08:24:57.663Z,92729.68
2018-03-24T08:27:25.336Z,92730.48
2018-03-24T08:29:53.422Z,92723.52
2018-03-24T08:32:21.040Z,92726.73
2018-03-24T08:34:48.933Z,92725.97
2018-03-24T08:37:16.602Z,92725.45
2018-03-24T08:39:44.433Z,92726.75
2018-03-24T08:42:13.565Z,92729.53
2018-03-24T08:44:41.457Z,92727.84
2018-03-24T08:47:09.929Z,92724.69
2018-03-24T08:49:37.593Z,92716.16
2018-03-24T08:52:05.910Z,92713.34
2018-03-24T08:54:34.429Z,92713.66
2018-03-24T08:57:02.402Z,92716.64
2018-03-24T08:59:30.014Z,92712.31
2018-03-24T09:01:57.705Z,92718.77
2018-03-24T09:04:25.548Z,92714.59
2018-03-24T09:06:53.332Z,92713.39
2018-03-24T09:09:21.800Z,92710.78
2018-03-24T09:11:49.470Z,92710.44
2018-03-24T09:14:17.295Z,92702.41
2018-03-24T09:16:44.990Z,92707.37
2018-03-24T09:19:12.654Z,92710.12
2018-03-24T09:21:41.375Z,92706.56
2018-03-24T09:24:09.072Z,92712.81
2018-03-24T09:26:36.752Z,92698.42
2018-03-24T09:29:05.476Z,92704.09
2018-03-24T09:31:33.561Z,92704.97
2018-03-24T09:34:02.058Z,92698.42
2018-03-24T09:36:32.289Z,92701.39
2018-03-24T09:39:00.747Z,92702.23
2018-03-24T09:41:28.963Z,92701.25
2018-03-24T09:43:56.736Z,92696.84
2018-03-24T09:46:24.434Z,92694.52
2018-03-24T09:48:52.115Z,92696.05
2018-03-24T09:51:19.852Z,92693.91
2018-03-24T09:53:47.564Z,92696.75
2018-03-24T09:56:15.249Z,92690.21
2018-03-24T09:58:42.958Z,92688.34
2018-03-24T10:01:10.795Z,92688.33
2018-03-24T10:03:39.152Z,92689.97
2018-03-24T10:06:07.067Z,92679.73
2018-03-24T10:08:34.707Z,92681.36
2018-03-24T10:11:02.391Z,92681.50
2018-03-24T10:13:30.165Z,92680.39
2018-03-24T10:15:57.829Z,92684.66
2018-03-24T10:18:25.673Z,92679.05
2018-03-24T10:20:56.888Z,92681.36
2018-03-24T10:23:33.324Z,92679.73
2018-03-24T10:26:01.183Z,92674.13
2018-03-24T10:28:29.381Z,92675.39
2018-03-24T10:30:57.106Z,92678.48
2018-03-24T10:33:25.568Z,92674.95
2018-03-24T10:35:53.440Z,92667.38
2018-03-24T10:38:21.426Z,92665.52
2018-03-24T10:40:49.271Z,92663.00
2018-03-24T10:43:22.437Z,92663.19
2018-03-24T10:45:50.151Z,92659.14
2018-03-24T10:48:17.795Z,92660.55
2018-03-24T10:50:45.477Z,92668.08
2018-03-24T10:53:13.085Z,92668.73
2018-03-24T10:55:40.754Z,92660.78
2018-03-24T10:58:08.361Z,92662.50
2018-03-24T11:00:36.086Z,92644.33
2018-03-24T11:03:03.901Z,92654.16
2018-03-24T11:05:31.764Z,92650.74
2018-03-24T11:07:59.833Z,92654.97
2018-03-24T11:10:27.466Z,92649.00
2018-03-24T11:12:55.152Z,92649.25
2018-03-24T11:15:22.805Z,92647.55
2018-03-24T11:17:50.415Z,92641.77
2018-03-24T11:20:18.124Z,92649.69
2018-03-24T11:22:47.077Z,92636.26
2018-03-24T11:25:14.799Z,92634.69
2018-03-24T11:27:42.671Z,92629.25
2018-03-24T11:30:11.246Z,92625.14
2018-03-24T11:32:38.929Z,92626.72
2018-03-24T11:35:07.185Z,92625.34
2018-03-24T11:37:36.283Z,92620.25
2018-03-24T11:40:04.558Z,92614.42
2018-03-24T11:42:32.526Z,92619.21
2018-03-24T11:45:00.147Z,92614.05
2018-03-24T11:47:30.160Z,92607.73
2018-03-24T11:49:57.875Z,92612.00
2018-03-24T11:52:25.731Z,92609.84
2018-03-24T11:54:53.422Z,92606.33
2018-03-24T11:57:21.122Z,92601.84
2018-03-24T11:59:48.780Z,92607.58
2018-03-24T12:02:16.439Z,92600.83
2018-03-24T12:04:44.987Z,92595.20
2018-03-24T12:07:13.790Z,92593.25
2018-03-24T12:09:41.391Z,92590.62
2018-03-24T12:12:09.093Z,92585.59
2018-03-24T12:14:36.761Z,92585.52
2018-03-24T12:17:04.925Z,92586.00
2018-03-24T12:19:32.870Z,92585.97
2018-03-24T12:22:00.486Z,92577.97
2018-03-24T12:24:28.321Z,92576.63
2018-03-24T12:26:56.390Z,92577.12
2018-03-24T12:29:23.987Z,92575.59
2018-03-24T12:31:51.712Z,92570.81
2018-03-24T12:34:20.048Z,92571.78
2018-03-24T12:36:48.469Z,92578.72
2018-03-24T12:39:16.191Z,92570.48
2018-03-24T12:41:43.966Z,92565.81
2018-03-24T12:44:11.632Z,92567.67
2018-03-24T12:46:39.343Z,92569.32
2018-03-24T12:49:06.941Z,92567.42
2018-03-24T12:51:34.744Z,92567.28
2018-03-24T12:54:02.596Z,92562.58
2018-03-24T12:56:30.286Z,92566.91
2018-03-24T12:58:58.049Z,92563.59
2018-03-24T13:01:25.651Z,92563.76
2018-03-24T13:03:53.462Z,92559.34
2018-03-24T13:06:21.647Z,92569.16
2018-03-24T13:08:49.572Z,92565.27
2018-03-24T13:11:17.794Z,92561.98
2018-03-24T13:13:45.548Z,92561.66
2018-03-24T13:16:13.207Z,92560.59
2018-03-24T13:18:42.551Z,92566.41
2018-03-24T13:21:11.289Z,92558.23
2018-03-24T13:23:39.067Z,92557.42
2018-03-24T13:26:06.944Z,92562.20
2018-03-24T13:28:35.222Z,92552.67
2018-03-24T13:31:02.913Z,92562.20
2018-03-24T13:33:31.348Z,92560.70
2018-03-24T13:35:59.167Z,92560.72
2018-03-24T13:38:26.900Z,92560.02
2018-03-24T13:40:54.662Z,92568.32
2018-03-24T13:43:22.321Z,92570.84
2018-03-24T13:45:51.334Z,92567.86
2018-03-24T13:48:18.982Z,92578.84
2018-03-24T13:50:46.638Z,92572.83
2018-03-24T13:53:14.503Z,92575.59
2018-03-24T13:55:42.841Z,92576.91
2018-03-24T13:58:11.514Z,92581.47
2018-03-24T14:00:39.231Z,92579.46
2018-03-24T14:03:07.872Z,92582.11
2018-03-24T14:05:35.493Z,92583.53
2018-03-24T14:08:03.364Z,92586.55
2018-03-24T14:10:31.880Z,92583.58
2018-03-24T14:13:00.362Z,92582.52
2018-03-24T14:15:28.148Z,92581.40
2018-03-24T14:17:56.031Z,92580.39
2018-03-24T14:20:23.725Z,92583.42
2018-03-24T14:22:51.907Z,92581.16
2018-03-24T14:25:19.541Z,92579.28
2018-03-24T14:27:48.094Z,92585.98
2018-03-24T14:30:15.734Z,92580.30
2018-03-24T14:32:43.394Z,92584.14
2018-03-24T14:35:11.073Z,92575.27
2018-03-24T14:37:38.684Z,92575.11
2018-03-24T14:40:06.362Z,92579.47
2018-03-24T14:42:34.203Z,92576.59
2018-03-24T14:45:01.867Z,92580.20
2018-03-24T14:47:29.472Z,92576.45
2018-03-24T14:49:57.935Z,92575.86
2018-03-24T14:52:25.630Z,92581.72
2018-03-24T14:54:53.260Z,92579.51
2018-03-24T14:57:20.931Z,92576.65
2018-03-24T14:59:48.588Z,92590.11
2018-03-24T15:02:16.179Z,92575.55
2018-03-24T15:04:43.831Z,92572.30
2018-03-24T15:07:11.490Z,92581.81
2018-03-24T15:09:39.247Z,92576.84
2018-03-24T15:12:06.914Z,92588.91
2018-03-24T15:14:34.604Z,92584.62
2018-03-24T15:17:02.312Z,92587.41
2018-03-24T15:19:30.017Z,92586.86
2018-03-24T15:21:57.656Z,92593.36
2018-03-24T15:24:25.410Z,92586.21
2018-03-24T15:26:53.051Z,92590.89
2018-03-24T15:29:32.493Z,92596.73
2018-03-24T15:32:11.803Z,92599.48
2018-03-24T15:34:51.296Z,92598.80
2018-03-24T15:37:18.975Z,92596.48
2018-03-24T15:39:46.773Z,92600.87
2018-03-24T15:42:15.659Z,92609.67
2018-03-24T15:44:43.406Z,92616.47
2018-03-24T15:47:11.203Z,92619.45
2018-03-24T15:49:38.871Z,92621.44
2018-03-24T15:52:07.159Z,92626.05
2018-03-24T15:54:35.124Z,92624.91
2018-03-24T15:57:02.906Z,92641.52
2018-03-24T15:59:30.776Z,92640.13
2018-03-24T16:01:58.576Z,92636.11
2018-03-24T16:04:26.590Z,92642.19
2018-03-24T16:06:54.282Z,92649.81
2018-03-24T16:09:22.842Z,92645.96
2018-03-24T16:11:50.544Z,92645.84
2018-03-24T16:14:18.198Z,92655.42
2018-03-24T16:16:46.014Z,92663.36
2018-03-24T16:19:14.071Z,92657.25
2018-03-24T16:21:42.168Z,92669.57
2018-03-24T16:24:10.694Z,92660.97
2018-03-24T16:26:38.622Z,92654.77
2018-03-24T16:29:06.792Z,92660.19
2018-03-24T16:31:36.709Z,92667.33
2018-03-24T16:34:04.360Z,92661.12
2018-03-24T16:36:32.390Z,92664.05
2018-03-24T16:39:00.721Z,92669.41
2018-03-24T16:41:28.589Z,92669.82
2018-03-24T16:43:56.491Z,92674.67
2018-03-24T16:46:24.411Z,92673.49
2018-03-24T16:48:52.496Z,92685.31
2018-03-24T16:51:20.496Z,92691.42
2018-03-24T16:53:48.263Z,92688.02
2018-03-24T16:56:16.278Z,92694.98
2018-03-24T16:58:44.152Z,92695.28
2018-03-24T17:01:11.887Z,92709.12
2018-03-24T17:03:39.901Z,92699.59
2018-03-24T17:06:07.898Z,92706.05
2018-03-24T17:08:36.563Z,92707.81
2018-03-24T17:11:04.742Z,92712.59
2018-03-24T17:13:33.948Z,92712.83
2018-03-24T17:16:02.090Z,92714.97
2018-03-24T17:18:29.747Z,92724.30
2018-03-24T17:20:57.435Z,92731.27
2018-03-24T17:23:25.070Z,92733.62
2018-03-24T17:25:52.965Z,92737.87
2018-03-24T17:28:20.817Z,92740.95
2018-03-24T17:30:48.486Z,92747.84
2018-03-24T17:33:16.640Z,92743.60
2018-03-24T17:35:44.622Z,92756.97
2018-03-24T17:38:12.500Z,92762.27
2018-03-24T17:40:40.165Z,92755.92
2018-03-24T17:43:08.178Z,92762.84
2018-03-24T17:45:36.118Z,92775.81
2018-03-24T17:48:04.039Z,92775.95
2018-03-24T17:50:32.008Z,92775.97
2018-03-24T17:52:59.869Z,92790.31
2018-03-24T17:55:27.541Z,92793.73
2018-03-24T17:57:55.997Z,92791.66
2018-03-24T18:00:25.597Z,92787.69
2018-03-24T18:02:53.418Z,92802.03
2018-03-24T18:05:21.352Z,92800.17
2018-03-24T18:07:49.982Z,92798.42
2018-03-24T18:10:17.899Z,92816.09
2018-03-24T18:12:46.725Z,92800.41
2018-03-24T18:15:16.663Z,92813.91
2018-03-24T18:17:44.521Z,92820.77
2018-03-24T18:20:12.560Z,92821.83
2018-03-24T18:22:40.651Z,92827.19
2018-03-24T18:25:08.706Z,92825.19
2018-03-24T18:27:37.449Z,92836.28
2018-03-24T18:30:06.025Z,92843.13
2018-03-24T18:32:35.116Z,92839.52
2018-03-24T18:35:04.860Z,92846.20
2018-03-24T18:37:32.860Z,92853.21
2018-03-24T18:40:00.846Z,92857.73
2018-03-24T18:42:28.949Z,92855.66
2018-03-24T18:44:57.457Z,92860.80
2018-03-24T18:47:25.159Z,92860.39
2018-03-24T18:49:53.658Z,92869.91
2018-03-24T18:52:22.035Z,92876.66
2018-03-24T18:54:50.096Z,92876.38
2018-03-24T18:57:20.565Z,92883.77
2018-03-24T18:59:49.119Z,92890.73
2018-03-24T19:02:17.861Z,92895.72
2018-03-24T19:04:45.960Z,92895.73
2018-03-24T19:07:15.422Z,92898.92
2018-03-24T19:09:43.733Z,92906.25
2018-03-24T19:12:11.935Z,92905.00
2018-03-24T19:14:40.364Z,92902.86
2018-03-24T19:17:09.398Z,92908.98
2018-03-24T19:19:37.962Z,92916.58
2018-03-24T19:22:06.889Z,92913.34
2018-03-24T19:24:35.945Z,92916.20
2018-03-24T19:27:04.386Z,92917.09
2018-03-24T19:29:32.917Z,92917.75
2018-03-24T19:32:02.633Z,92920.92
2018-03-24T19:34:31.276Z,92919.29
2018-03-24T19:36:59.243Z,92926.45
2018-03-24T19:39:27.777Z,92930.59
2018-03-24T19:41:56.036Z,92927.63
2018-03-24T19:44:24.042Z,92938.98
2018-03-24T19:46:53.691Z,92943.94
2018-03-24T19:49:21.976Z,92937.13
2018-03-24T19:51:49.988Z,92948.53
2018-03-24T19:54:18.810Z,92941.47
2018-03-24T19:56:47.017Z,92959.41
2018-03-24T19:59:15.491Z,92958.84
2018-03-24T20:01:43.679Z,92957.31
2018-03-24T20:04:12.395Z,92946.20
2018-03-24T20:06:40.863Z,92959.61
2018-03-24T20:09:08.816Z,92959.34
2018-03-24T20:11:36.862Z,92955.20
2018-03-24T20:14:04.930Z,92955.27
2018-03-24T20:16:33.792Z,92964.25
2018-03-24T20:19:02.140Z,92968.30
2018-03-24T20:21:30.807Z,92966.73
2018-03-24T20:23:58.834Z,92965.34
2018-03-24T20:26:28.152Z,92966.02
2018-03-24T20:28:56.169Z,92973.43
2018-03-24T20:31:25.516Z,92975.69
2018-03-24T20:33:53.908Z,92975.09
2018-03-24T20:36:22.453Z,92977.27
2018-03-24T20:38:50.310Z,92976.77
2018-03-24T20:41:18.191Z,92978.76
2018-03-24T20:43:45.920Z,92980.23
2018-03-24T20:46:13.731Z,92986.03
2018-03-24T20:48:41.576Z,92980.59
2018-03-24T20:51:09.523Z,92981.37
2018-03-24T20:53:37.527Z,92981.87
2018-03-24T20:56:05.705Z,92987.98
2018-03-24T20:58:33.560Z,92992.52
2018-03-24T21:01:02.265Z,92986.58
2018-03-24T21:03:30.117Z,92988.19
2018-03-24T21:05:58.050Z,92986.89
2018-03-24T21:08:26.657Z,92997.52
2018-03-24T21:10:54.525Z,93002.45
2018-03-24T21:13:22.414Z,92995.50
2018-03-24T21:15:50.466Z,92994.55
2018-03-24T21:18:18.234Z,92999.00
2018-03-24T21:20:46.146Z,93002.52
2018-03-24T21:23:14.041Z,93000.81
2018-03-24T21:25:42.770Z,93002.81
2018-03-24T21:28:11.237Z,93004.80
2018-03-24T21:30:39.095Z,92999.18
2018-03-24T21:33:06.986Z,93002.84
2018-03-24T21:35:34.760Z,93011.03
2018-03-24T21:38:02.624Z,93010.35
2018-03-24T21:40:30.280Z,93010.81
2018-03-24T21:42:57.941Z,93008.12
2018-03-24T21:45:25.609Z,93012.86
2018-03-24T21:47:53.872Z,93013.59
2018-03-24T21:50:21.543Z,93012.39
2018-03-24T21:52:49.200Z,93012.20
2018-03-24T21:55:16.963Z,93013.27
2018-03-24T21:57:44.680Z,93005.84
2018-03-24T22:00:12.492Z,93017.02
2018-03-24T22:02:40.832Z,93010.80
2018-03-24T22:05:08.828Z,93015.90
2018-03-24T22:07:36.821Z,93019.33
2018-03-24T22:10:04.781Z,93013.75
2018-03-24T22:12:32.667Z,93012.05
2018-03-24T22:15:01.350Z,93008.72
2018-03-24T22:17:29.414Z,93013.36
2018-03-24T22:19:57.297Z,93008.61
2018-03-24T22:22:25.298Z,93010.30
2018-03-24T22:24:53.222Z,93009.78
2018-03-24T22:27:21.888Z,93002.31
2018-03-24T22:29:49.977Z,93001.91
2018-03-24T22:32:19.386Z,93004.19
2018-03-24T22:34:47.212Z,93003.48
2018-03-24T22:37:15.670Z,93005.13
2018-03-24T22:39:43.555Z,92998.99
2018-03-24T22:42:12.185Z,93007.61
2018-03-24T22:44:39.843Z,93001.78
2018-03-24T22:47:07.519Z,92998.90
2018-03-24T22:49:37.976Z,93001.42
2018-03-24T22:52:05.699Z,92997.09
2018-03-24T22:54:33.349Z,92996.80
2018-03-24T22:57:01.224Z,92997.69
2018-03-24T22:59:29.086Z,92996.45
2018-03-24T23:01:56.817Z,92996.81
2018-03-24T23:04:24.622Z,93001.30
2018-03-24T23:06:52.627Z,92997.77
2018-03-24T23:09:20.280Z,92999.30
2018-03-24T23:11:47.962Z,93007.53
2018-03-24T23:14:16.016Z,93006.53
2018-03-24T23:16:43.640Z,93007.25
2018-03-24T23:19:11.279Z,93009.37
2018-03-24T23:21:38.977Z,93009.20
2018-03-24T23:24:06.877Z,93012.34
2018-03-24T23:26:34.738Z,93004.20
2018-03-24T23:29:02.580Z,93006.58
2018-03-24T23:31:30.441Z,93005.11
2018-03-24T23:33:58.037Z,93007.11
2018-03-24T23:36:25.681Z,93006.48
2018-03-24T23:38:53.436Z,93006.70
2018-03-24T23:41:21.306Z,93002.16
2018-03-24T23:43:48.888Z,93006.78
2018-03-24T23:46:16.519Z,93001.56
2018-03-24T23:48:44.274Z,93001.33
2018-03-24T23:51:11.927Z,92996.54
2018-03-24T23:53:39.528Z,92998.56
2018-03-24T23:56:07.277Z,92996.56
2018-03-24T23:58:34.868Z,93000.88
